sensor_id;sensor_type;location;lat;lon;timestamp;temperature;humidity
18823;DHT22;9540;51.550;7.980;2022-12-31T00:00:56;12.90;99.90
18823;DHT22;9540;51.550;7.980;2022-12-31T00:03:23;12.90;99.90
18823;DHT22;9540;51.550;7.980;2022-12-31T00:05:51;12.90;99.90
18823;DHT22;9540;51.550;7.980;2022-12-31T00:08:18;12.90;99.90
18823;DHT22;9540;51.550;7.980;2022-12-31T00:10:45;12.80;99.90
18823;DHT22;9540;51.550;7.980;2022-12-31T00:13:13;12.80;99.90
18823;DHT22;9540;51.550;7.980;2022-12-31T00:15:40;12.90;99.90
18823;DHT22;9540;51.550;7.980;2022-12-31T00:18:08;13.00;99.90
18823;DHT22;9540;51.550;7.980;2022-12-31T00:20:38;13.00;99.90
18823;DHT22;9540;51.550;7.980;2022-12-31T00:23:08;13.00;99.90
18823;DHT22;9540;51.550;7.980;2022-12-31T00:25:35;13.00;99.90
18823;DHT22;9540;51.550;7.980;2022-12-31T00:28:03;13.00;99.90
18823;DHT22;9540;51.550;7.980;2022-12-31T00:30:30;13.10;99.90
18823;DHT22;9540;51.550;7.980;2022-12-31T00:32:57;13.10;99.90
18823;DHT22;9540;51.550;7.980;2022-12-31T00:35:24;13.10;99.90
18823;DHT22;9540;51.550;7.980;2022-12-31T00:37:51;13.20;99.90
18823;DHT22;9540;51.550;7.980;2022-12-31T00:40:20;13.20;99.90
18823;DHT22;9540;51.550;7.980;2022-12-31T00:42:47;13.30;99.90
18823;DHT22;9540;51.550;7.980;2022-12-31T00:45:13;13.20;99.90
18823;DHT22;9540;51.550;7.980;2022-12-31T00:47:40;13.10;99.90
18823;DHT22;9540;51.550;7.980;2022-12-31T00:50:08;13.10;99.90
18823;DHT22;9540;51.550;7.980;2022-12-31T00:52:35;13.10;99.90
18823;DHT22;9540;51.550;7.980;2022-12-31T00:55:02;13.10;99.90
18823;DHT22;9540;51.550;7.980;2022-12-31T00:57:30;12.90;99.90
18823;DHT22;9540;51.550;7.980;2022-12-31T00:59:57;12.80;99.90
18823;DHT22;9540;51.550;7.980;2022-12-31T01:02:24;12.60;99.90
18823;DHT22;9540;51.550;7.980;2022-12-31T01:04:51;12.50;99.90
18823;DHT22;9540;51.550;7.980;2022-12-31T01:07:18;12.50;99.90
18823;DHT22;9540;51.550;7.980;2022-12-31T01:09:45;12.40;99.90
18823;DHT22;9540;51.550;7.980;2022-12-31T01:12:12;12.30;99.90
18823;DHT22;9540;51.550;7.980;2022-12-31T01:14:40;12.20;99.90
18823;DHT22;9540;51.550;7.980;2022-12-31T01:17:07;12.10;99.90
18823;DHT22;9540;51.550;7.980;2022-12-31T01:19:34;12.00;99.90
18823;DHT22;9540;51.550;7.980;2022-12-31T01:22:01;12.00;99.90
18823;DHT22;9540;51.550;7.980;2022-12-31T01:24:27;12.00;99.90
18823;DHT22;9540;51.550;7.980;2022-12-31T01:26:54;11.90;99.90
18823;DHT22;9540;51.550;7.980;2022-12-31T01:29:22;11.90;99.90
18823;DHT22;9540;51.550;7.980;2022-12-31T01:31:50;11.90;99.90
18823;DHT22;9540;51.550;7.980;2022-12-31T01:34:17;11.90;99.90
18823;DHT22;9540;51.550;7.980;2022-12-31T01:36:44;11.90;99.90
18823;DHT22;9540;51.550;7.980;2022-12-31T01:39:12;12.00;99.90
18823;DHT22;9540;51.550;7.980;2022-12-31T01:41:40;12.00;99.90
18823;DHT22;9540;51.550;7.980;2022-12-31T01:44:47;12.00;99.90
18823;DHT22;9540;51.550;7.980;2022-12-31T01:47:18;12.00;99.90
18823;DHT22;9540;51.550;7.980;2022-12-31T01:49:48;12.00;99.90
18823;DHT22;9540;51.550;7.980;2022-12-31T01:52:20;12.00;99.90
18823;DHT22;9540;51.550;7.980;2022-12-31T01:54:50;12.20;99.90
18823;DHT22;9540;51.550;7.980;2022-12-31T01:57:18;12.20;99.90
18823;DHT22;9540;51.550;7.980;2022-12-31T01:59:45;12.30;99.90
18823;DHT22;9540;51.550;7.980;2022-12-31T02:02:13;12.40;99.90
18823;DHT22;9540;51.550;7.980;2022-12-31T02:04:42;12.60;99.90
18823;DHT22;9540;51.550;7.980;2022-12-31T02:07:10;12.60;99.90
18823;DHT22;9540;51.550;7.980;2022-12-31T02:09:39;12.60;99.90
18823;DHT22;9540;51.550;7.980;2022-12-31T02:12:07;12.70;99.90
18823;DHT22;9540;51.550;7.980;2022-12-31T02:14:37;12.70;99.90
18823;DHT22;9540;51.550;7.980;2022-12-31T02:17:08;12.70;99.90
18823;DHT22;9540;51.550;7.980;2022-12-31T02:19:56;12.80;99.90
18823;DHT22;9540;51.550;7.980;2022-12-31T02:22:46;12.90;99.90
18823;DHT22;9540;51.550;7.980;2022-12-31T02:25:29;12.90;99.90
18823;DHT22;9540;51.550;7.980;2022-12-31T02:28:13;13.00;99.90
18823;DHT22;9540;51.550;7.980;2022-12-31T02:30:47;13.00;99.90
18823;DHT22;9540;51.550;7.980;2022-12-31T02:33:19;13.00;99.90
18823;DHT22;9540;51.550;7.980;2022-12-31T02:35:50;13.00;99.90
18823;DHT22;9540;51.550;7.980;2022-12-31T02:38:20;13.10;99.90
18823;DHT22;9540;51.550;7.980;2022-12-31T02:40:48;13.20;99.90
18823;DHT22;9540;51.550;7.980;2022-12-31T02:43:15;13.40;99.90
18823;DHT22;9540;51.550;7.980;2022-12-31T02:45:47;13.40;99.90
18823;DHT22;9540;51.550;7.980;2022-12-31T02:48:32;13.50;99.90
18823;DHT22;9540;51.550;7.980;2022-12-31T02:51:14;13.50;99.90
18823;DHT22;9540;51.550;7.980;2022-12-31T02:56:38;13.70;99.90
18823;DHT22;9540;51.550;7.980;2022-12-31T02:59:12;13.80;99.90
18823;DHT22;9540;51.550;7.980;2022-12-31T03:02:02;13.80;99.90
18823;DHT22;9540;51.550;7.980;2022-12-31T03:04:39;13.90;99.90
18823;DHT22;9540;51.550;7.980;2022-12-31T03:07:08;13.90;99.90
18823;DHT22;9540;51.550;7.980;2022-12-31T03:09:36;14.10;99.90
18823;DHT22;9540;51.550;7.980;2022-12-31T03:12:04;14.30;99.90
18823;DHT22;9540;51.550;7.980;2022-12-31T03:14:49;14.40;99.90
18823;DHT22;9540;51.550;7.980;2022-12-31T03:17:18;14.20;99.90
18823;DHT22;9540;51.550;7.980;2022-12-31T03:19:45;14.20;99.90
18823;DHT22;9540;51.550;7.980;2022-12-31T03:22:30;14.10;99.90
18823;DHT22;9540;51.550;7.980;2022-12-31T03:24:59;14.20;99.90
18823;DHT22;9540;51.550;7.980;2022-12-31T03:27:45;14.00;99.90
18823;DHT22;9540;51.550;7.980;2022-12-31T03:30:13;14.10;99.90
18823;DHT22;9540;51.550;7.980;2022-12-31T03:32:43;14.10;99.90
18823;DHT22;9540;51.550;7.980;2022-12-31T03:35:12;14.20;99.90
18823;DHT22;9540;51.550;7.980;2022-12-31T03:37:40;14.10;99.90
18823;DHT22;9540;51.550;7.980;2022-12-31T03:40:09;14.10;99.90
18823;DHT22;9540;51.550;7.980;2022-12-31T03:42:36;14.10;99.90
18823;DHT22;9540;51.550;7.980;2022-12-31T03:45:03;13.90;99.90
18823;DHT22;9540;51.550;7.980;2022-12-31T03:47:31;13.90;99.90
18823;DHT22;9540;51.550;7.980;2022-12-31T03:49:59;13.90;99.90
18823;DHT22;9540;51.550;7.980;2022-12-31T03:52:26;13.90;99.90
18823;DHT22;9540;51.550;7.980;2022-12-31T03:54:52;13.80;99.90
18823;DHT22;9540;51.550;7.980;2022-12-31T03:57:21;13.70;99.90
18823;DHT22;9540;51.550;7.980;2022-12-31T03:59:48;13.80;99.90
18823;DHT22;9540;51.550;7.980;2022-12-31T04:02:15;13.80;99.90
18823;DHT22;9540;51.550;7.980;2022-12-31T04:04:42;13.70;99.90
18823;DHT22;9540;51.550;7.980;2022-12-31T04:07:10;13.70;99.90
18823;DHT22;9540;51.550;7.980;2022-12-31T04:09:37;13.70;99.90
18823;DHT22;9540;51.550;7.980;2022-12-31T04:12:04;13.80;99.90
18823;DHT22;9540;51.550;7.980;2022-12-31T04:14:31;13.70;99.90
18823;DHT22;9540;51.550;7.980;2022-12-31T04:16:58;13.70;99.90
18823;DHT22;9540;51.550;7.980;2022-12-31T04:19:25;13.70;99.90
18823;DHT22;9540;51.550;7.980;2022-12-31T04:21:52;13.70;99.90
18823;DHT22;9540;51.550;7.980;2022-12-31T04:24:20;13.70;99.90
18823;DHT22;9540;51.550;7.980;2022-12-31T04:26:47;13.70;99.90
18823;DHT22;9540;51.550;7.980;2022-12-31T04:29:14;13.70;99.90
18823;DHT22;9540;51.550;7.980;2022-12-31T04:31:41;13.60;99.90
18823;DHT22;9540;51.550;7.980;2022-12-31T04:34:08;13.60;99.90
18823;DHT22;9540;51.550;7.980;2022-12-31T04:36:35;13.60;99.90
18823;DHT22;9540;51.550;7.980;2022-12-31T04:39:02;13.70;99.90
18823;DHT22;9540;51.550;7.980;2022-12-31T04:41:30;13.70;99.90
18823;DHT22;9540;51.550;7.980;2022-12-31T04:43:58;13.70;99.90
18823;DHT22;9540;51.550;7.980;2022-12-31T04:46:26;13.70;99.90
18823;DHT22;9540;51.550;7.980;2022-12-31T04:48:54;13.70;99.90
18823;DHT22;9540;51.550;7.980;2022-12-31T04:51:22;13.80;99.90
18823;DHT22;9540;51.550;7.980;2022-12-31T04:53:49;13.90;99.90
18823;DHT22;9540;51.550;7.980;2022-12-31T04:56:16;14.00;99.90
18823;DHT22;9540;51.550;7.980;2022-12-31T04:58:45;14.00;99.90
18823;DHT22;9540;51.550;7.980;2022-12-31T05:01:13;13.90;99.90
18823;DHT22;9540;51.550;7.980;2022-12-31T05:03:40;14.00;99.90
18823;DHT22;9540;51.550;7.980;2022-12-31T05:06:10;14.00;99.90
18823;DHT22;9540;51.550;7.980;2022-12-31T05:08:37;13.90;99.90
18823;DHT22;9540;51.550;7.980;2022-12-31T05:11:04;13.70;99.90
18823;DHT22;9540;51.550;7.980;2022-12-31T05:13:31;13.60;99.90
18823;DHT22;9540;51.550;7.980;2022-12-31T05:16:00;13.50;99.90
18823;DHT22;9540;51.550;7.980;2022-12-31T05:18:28;13.50;99.90
18823;DHT22;9540;51.550;7.980;2022-12-31T05:20:56;13.50;99.90
18823;DHT22;9540;51.550;7.980;2022-12-31T05:23:22;13.50;99.90
18823;DHT22;9540;51.550;7.980;2022-12-31T05:25:49;13.70;99.90
18823;DHT22;9540;51.550;7.980;2022-12-31T05:28:17;13.70;99.90
18823;DHT22;9540;51.550;7.980;2022-12-31T05:30:46;13.80;99.90
18823;DHT22;9540;51.550;7.980;2022-12-31T05:33:15;13.70;99.90
18823;DHT22;9540;51.550;7.980;2022-12-31T05:35:42;13.70;99.90
18823;DHT22;9540;51.550;7.980;2022-12-31T05:38:08;13.80;99.90
18823;DHT22;9540;51.550;7.980;2022-12-31T05:40:35;13.90;99.90
18823;DHT22;9540;51.550;7.980;2022-12-31T05:43:02;14.10;99.90
18823;DHT22;9540;51.550;7.980;2022-12-31T05:45:29;14.20;99.90
18823;DHT22;9540;51.550;7.980;2022-12-31T05:47:56;14.30;99.90
18823;DHT22;9540;51.550;7.980;2022-12-31T05:50:24;14.40;99.90
18823;DHT22;9540;51.550;7.980;2022-12-31T05:52:51;14.40;99.90
18823;DHT22;9540;51.550;7.980;2022-12-31T05:55:18;14.60;99.90
18823;DHT22;9540;51.550;7.980;2022-12-31T05:57:45;14.60;99.90
18823;DHT22;9540;51.550;7.980;2022-12-31T06:00:13;14.70;99.90
18823;DHT22;9540;51.550;7.980;2022-12-31T06:02:40;14.70;99.90
18823;DHT22;9540;51.550;7.980;2022-12-31T06:05:08;14.80;99.90
18823;DHT22;9540;51.550;7.980;2022-12-31T06:07:36;15.00;99.90
18823;DHT22;9540;51.550;7.980;2022-12-31T06:10:04;15.00;99.90
18823;DHT22;9540;51.550;7.980;2022-12-31T06:12:31;15.00;99.90
18823;DHT22;9540;51.550;7.980;2022-12-31T06:14:57;15.10;99.90
18823;DHT22;9540;51.550;7.980;2022-12-31T06:17:25;15.10;99.90
18823;DHT22;9540;51.550;7.980;2022-12-31T06:19:51;15.30;99.90
18823;DHT22;9540;51.550;7.980;2022-12-31T06:22:18;15.30;99.90
18823;DHT22;9540;51.550;7.980;2022-12-31T06:24:46;15.30;99.90
18823;DHT22;9540;51.550;7.980;2022-12-31T06:27:13;15.30;99.90
18823;DHT22;9540;51.550;7.980;2022-12-31T06:29:40;15.30;99.90
18823;DHT22;9540;51.550;7.980;2022-12-31T06:32:07;15.40;99.90
18823;DHT22;9540;51.550;7.980;2022-12-31T06:34:34;15.60;99.90
18823;DHT22;9540;51.550;7.980;2022-12-31T06:37:01;15.60;99.90
18823;DHT22;9540;51.550;7.980;2022-12-31T06:39:28;15.60;99.90
18823;DHT22;9540;51.550;7.980;2022-12-31T06:41:56;15.70;99.90
18823;DHT22;9540;51.550;7.980;2022-12-31T06:44:23;15.80;99.90
18823;DHT22;9540;51.550;7.980;2022-12-31T06:46:50;15.80;99.90
18823;DHT22;9540;51.550;7.980;2022-12-31T06:49:17;15.70;99.90
18823;DHT22;9540;51.550;7.980;2022-12-31T06:51:44;15.70;99.90
18823;DHT22;9540;51.550;7.980;2022-12-31T06:54:12;15.80;99.90
18823;DHT22;9540;51.550;7.980;2022-12-31T06:56:40;15.80;99.90
18823;DHT22;9540;51.550;7.980;2022-12-31T06:59:20;15.80;99.90
18823;DHT22;9540;51.550;7.980;2022-12-31T07:01:56;15.90;99.90
18823;DHT22;9540;51.550;7.980;2022-12-31T07:07:28;16.00;99.90
18823;DHT22;9540;51.550;7.980;2022-12-31T07:10:05;16.10;99.90
18823;DHT22;9540;51.550;7.980;2022-12-31T07:12:47;16.10;99.90
18823;DHT22;9540;51.550;7.980;2022-12-31T07:15:29;16.20;99.90
18823;DHT22;9540;51.550;7.980;2022-12-31T07:18:05;16.20;99.90
18823;DHT22;9540;51.550;7.980;2022-12-31T07:20:36;16.20;99.90
18823;DHT22;9540;51.550;7.980;2022-12-31T07:23:03;16.20;99.90
18823;DHT22;9540;51.550;7.980;2022-12-31T07:25:30;16.20;99.90
18823;DHT22;9540;51.550;7.980;2022-12-31T07:28:07;16.20;99.90
18823;DHT22;9540;51.550;7.980;2022-12-31T07:30:45;16.10;99.90
18823;DHT22;9540;51.550;7.980;2022-12-31T07:33:31;16.10;99.90
18823;DHT22;9540;51.550;7.980;2022-12-31T07:36:08;16.10;99.90
18823;DHT22;9540;51.550;7.980;2022-12-31T07:38:40;16.10;99.90
18823;DHT22;9540;51.550;7.980;2022-12-31T07:41:30;16.20;99.90
18823;DHT22;9540;51.550;7.980;2022-12-31T07:44:06;16.30;99.90
18823;DHT22;9540;51.550;7.980;2022-12-31T07:46:42;16.30;99.90
18823;DHT22;9540;51.550;7.980;2022-12-31T07:49:12;16.30;99.90
18823;DHT22;9540;51.550;7.980;2022-12-31T07:51:40;16.30;99.90
18823;DHT22;9540;51.550;7.980;2022-12-31T07:54:07;16.30;99.90
18823;DHT22;9540;51.550;7.980;2022-12-31T07:56:34;16.30;99.90
18823;DHT22;9540;51.550;7.980;2022-12-31T07:59:10;16.20;99.90
18823;DHT22;9540;51.550;7.980;2022-12-31T08:01:47;16.20;99.90
18823;DHT22;9540;51.550;7.980;2022-12-31T08:04:23;16.10;99.90
18823;DHT22;9540;51.550;7.980;2022-12-31T08:06:59;16.10;99.90
18823;DHT22;9540;51.550;7.980;2022-12-31T08:09:38;16.10;99.90
18823;DHT22;9540;51.550;7.980;2022-12-31T08:12:07;16.20;99.90
18823;DHT22;9540;51.550;7.980;2022-12-31T08:14:38;16.10;99.90
18823;DHT22;9540;51.550;7.980;2022-12-31T08:17:11;16.10;99.90
18823;DHT22;9540;51.550;7.980;2022-12-31T08:19:39;16.20;99.90
18823;DHT22;9540;51.550;7.980;2022-12-31T08:22:21;16.20;99.90
18823;DHT22;9540;51.550;7.980;2022-12-31T08:24:58;16.10;99.90
18823;DHT22;9540;51.550;7.980;2022-12-31T08:27:36;16.10;99.90
18823;DHT22;9540;51.550;7.980;2022-12-31T08:30:08;16.10;99.90
18823;DHT22;9540;51.550;7.980;2022-12-31T08:32:42;16.10;99.90
18823;DHT22;9540;51.550;7.980;2022-12-31T08:35:22;16.00;99.90
18823;DHT22;9540;51.550;7.980;2022-12-31T08:37:58;16.10;99.90
18823;DHT22;9540;51.550;7.980;2022-12-31T08:40:32;16.00;99.90
18823;DHT22;9540;51.550;7.980;2022-12-31T08:43:15;16.10;99.90
18823;DHT22;9540;51.550;7.980;2022-12-31T08:45:46;16.10;99.90
18823;DHT22;9540;51.550;7.980;2022-12-31T08:48:22;16.20;99.90
18823;DHT22;9540;51.550;7.980;2022-12-31T08:50:51;16.30;99.90
18823;DHT22;9540;51.550;7.980;2022-12-31T08:53:19;16.30;99.90
18823;DHT22;9540;51.550;7.980;2022-12-31T08:55:49;16.30;99.90
18823;DHT22;9540;51.550;7.980;2022-12-31T08:58:30;16.30;99.90
18823;DHT22;9540;51.550;7.980;2022-12-31T09:01:00;16.30;99.90
18823;DHT22;9540;51.550;7.980;2022-12-31T09:03:44;16.40;99.90
18823;DHT22;9540;51.550;7.980;2022-12-31T09:06:19;16.40;99.90
18823;DHT22;9540;51.550;7.980;2022-12-31T09:08:54;16.40;99.90
18823;DHT22;9540;51.550;7.980;2022-12-31T09:11:29;16.40;99.90
18823;DHT22;9540;51.550;7.980;2022-12-31T09:14:07;16.40;99.90
18823;DHT22;9540;51.550;7.980;2022-12-31T09:16:42;16.50;99.90
18823;DHT22;9540;51.550;7.980;2022-12-31T09:19:13;16.40;99.90
18823;DHT22;9540;51.550;7.980;2022-12-31T09:21:41;16.50;99.90
18823;DHT22;9540;51.550;7.980;2022-12-31T09:24:11;16.60;99.90
18823;DHT22;9540;51.550;7.980;2022-12-31T09:26:47;16.70;99.90
18823;DHT22;9540;51.550;7.980;2022-12-31T09:29:25;16.80;99.90
18823;DHT22;9540;51.550;7.980;2022-12-31T09:32:00;16.80;99.90
18823;DHT22;9540;51.550;7.980;2022-12-31T09:34:33;16.70;99.90
18823;DHT22;9540;51.550;7.980;2022-12-31T09:37:05;16.70;99.90
18823;DHT22;9540;51.550;7.980;2022-12-31T09:39:39;16.70;99.90
18823;DHT22;9540;51.550;7.980;2022-12-31T09:42:47;16.70;99.90
18823;DHT22;9540;51.550;7.980;2022-12-31T09:45:55;16.70;99.90
18823;DHT22;9540;51.550;7.980;2022-12-31T09:51:29;16.80;99.90
18823;DHT22;9540;51.550;7.980;2022-12-31T09:54:18;16.70;99.90
18823;DHT22;9540;51.550;7.980;2022-12-31T09:57:00;16.60;99.90
18823;DHT22;9540;51.550;7.980;2022-12-31T09:59:37;16.50;99.90
18823;DHT22;9540;51.550;7.980;2022-12-31T10:02:16;16.30;99.90
18823;DHT22;9540;51.550;7.980;2022-12-31T10:05:00;16.10;99.90
18823;DHT22;9540;51.550;7.980;2022-12-31T10:07:44;15.90;99.90
18823;DHT22;9540;51.550;7.980;2022-12-31T10:10:15;15.80;99.90
18823;DHT22;9540;51.550;7.980;2022-12-31T10:13:07;15.90;99.90
18823;DHT22;9540;51.550;7.980;2022-12-31T10:16:02;16.10;99.90
18823;DHT22;9540;51.550;7.980;2022-12-31T10:18:51;16.30;99.90
18823;DHT22;9540;51.550;7.980;2022-12-31T10:21:31;16.40;99.90
18823;DHT22;9540;51.550;7.980;2022-12-31T10:24:31;16.50;99.90
18823;DHT22;9540;51.550;7.980;2022-12-31T10:27:15;16.50;99.90
18823;DHT22;9540;51.550;7.980;2022-12-31T10:29:46;16.50;99.90
18823;DHT22;9540;51.550;7.980;2022-12-31T10:32:17;16.50;99.90
18823;DHT22;9540;51.550;7.980;2022-12-31T10:34:53;16.50;99.90
18823;DHT22;9540;51.550;7.980;2022-12-31T10:37:24;16.50;99.90
18823;DHT22;9540;51.550;7.980;2022-12-31T10:40:01;16.50;99.90
18823;DHT22;9540;51.550;7.980;2022-12-31T10:51:56;16.60;99.90
18823;DHT22;9540;51.550;7.980;2022-12-31T10:54:48;16.70;99.90
18823;DHT22;9540;51.550;7.980;2022-12-31T11:00:18;17.00;99.90
18823;DHT22;9540;51.550;7.980;2022-12-31T11:03:30;17.10;99.90
18823;DHT22;9540;51.550;7.980;2022-12-31T11:06:49;17.20;99.90
18823;DHT22;9540;51.550;7.980;2022-12-31T11:09:49;17.20;99.90
18823;DHT22;9540;51.550;7.980;2022-12-31T11:12:39;17.20;99.90
18823;DHT22;9540;51.550;7.980;2022-12-31T11:15:36;17.30;99.90
18823;DHT22;9540;51.550;7.980;2022-12-31T11:18:11;17.30;99.90
18823;DHT22;9540;51.550;7.980;2022-12-31T11:20:55;17.40;99.90
18823;DHT22;9540;51.550;7.980;2022-12-31T11:23:36;17.40;99.90
18823;DHT22;9540;51.550;7.980;2022-12-31T11:26:12;17.40;99.90
18823;DHT22;9540;51.550;7.980;2022-12-31T11:29:08;17.50;99.90
18823;DHT22;9540;51.550;7.980;2022-12-31T11:31:47;17.50;99.90
18823;DHT22;9540;51.550;7.980;2022-12-31T11:34:38;17.50;99.90
18823;DHT22;9540;51.550;7.980;2022-12-31T11:37:21;17.60;99.90
18823;DHT22;9540;51.550;7.980;2022-12-31T11:40:00;17.80;99.90
18823;DHT22;9540;51.550;7.980;2022-12-31T11:42:38;17.90;99.90
18823;DHT22;9540;51.550;7.980;2022-12-31T11:45:19;18.10;99.90
18823;DHT22;9540;51.550;7.980;2022-12-31T11:47:56;18.20;99.90
18823;DHT22;9540;51.550;7.980;2022-12-31T11:50:34;18.60;99.90
18823;DHT22;9540;51.550;7.980;2022-12-31T11:53:13;18.80;99.90
18823;DHT22;9540;51.550;7.980;2022-12-31T11:55:55;18.60;99.90
18823;DHT22;9540;51.550;7.980;2022-12-31T11:58:25;18.30;99.90
18823;DHT22;9540;51.550;7.980;2022-12-31T12:00:56;18.10;99.90
18823;DHT22;9540;51.550;7.980;2022-12-31T12:03:24;18.10;99.90
18823;DHT22;9540;51.550;7.980;2022-12-31T12:05:52;18.10;99.90
18823;DHT22;9540;51.550;7.980;2022-12-31T12:08:21;18.10;99.90
18823;DHT22;9540;51.550;7.980;2022-12-31T12:10:52;17.90;99.90
18823;DHT22;9540;51.550;7.980;2022-12-31T12:13:23;17.80;99.90
18823;DHT22;9540;51.550;7.980;2022-12-31T12:15:53;17.70;99.90
18823;DHT22;9540;51.550;7.980;2022-12-31T12:18:28;17.50;99.90
18823;DHT22;9540;51.550;7.980;2022-12-31T12:21:08;17.40;99.90
18823;DHT22;9540;51.550;7.980;2022-12-31T12:23:35;17.30;99.90
18823;DHT22;9540;51.550;7.980;2022-12-31T12:26:02;17.30;99.90
18823;DHT22;9540;51.550;7.980;2022-12-31T12:28:40;17.20;99.90
18823;DHT22;9540;51.550;7.980;2022-12-31T12:31:17;17.20;99.90
18823;DHT22;9540;51.550;7.980;2022-12-31T12:33:46;17.10;99.90
18823;DHT22;9540;51.550;7.980;2022-12-31T12:36:15;17.10;99.90
18823;DHT22;9540;51.550;7.980;2022-12-31T12:38:42;17.20;99.90
18823;DHT22;9540;51.550;7.980;2022-12-31T12:41:11;17.20;99.90
18823;DHT22;9540;51.550;7.980;2022-12-31T12:43:38;17.20;99.90
18823;DHT22;9540;51.550;7.980;2022-12-31T12:46:18;17.00;99.90
18823;DHT22;9540;51.550;7.980;2022-12-31T12:48:52;17.00;99.90
18823;DHT22;9540;51.550;7.980;2022-12-31T12:51:31;16.90;99.90
18823;DHT22;9540;51.550;7.980;2022-12-31T12:54:04;16.70;99.90
18823;DHT22;9540;51.550;7.980;2022-12-31T12:56:39;16.50;99.90
18823;DHT22;9540;51.550;7.980;2022-12-31T12:59:34;16.40;99.90
18823;DHT22;9540;51.550;7.980;2022-12-31T13:02:21;16.40;99.90
18823;DHT22;9540;51.550;7.980;2022-12-31T13:05:02;16.40;99.90
18823;DHT22;9540;51.550;7.980;2022-12-31T13:07:45;16.30;99.90
18823;DHT22;9540;51.550;7.980;2022-12-31T13:10:29;15.90;99.90
18823;DHT22;9540;51.550;7.980;2022-12-31T13:13:00;15.60;99.90
18823;DHT22;9540;51.550;7.980;2022-12-31T13:15:33;15.40;99.90
18823;DHT22;9540;51.550;7.980;2022-12-31T13:18:12;15.40;99.90
18823;DHT22;9540;51.550;7.980;2022-12-31T13:20:49;15.40;99.90
18823;DHT22;9540;51.550;7.980;2022-12-31T13:23:24;15.30;99.90
18823;DHT22;9540;51.550;7.980;2022-12-31T13:26:02;15.40;99.90
18823;DHT22;9540;51.550;7.980;2022-12-31T13:28:32;15.50;99.90
18823;DHT22;9540;51.550;7.980;2022-12-31T13:31:04;15.50;99.90
18823;DHT22;9540;51.550;7.980;2022-12-31T13:33:35;15.50;99.90
18823;DHT22;9540;51.550;7.980;2022-12-31T13:36:07;15.50;99.90
18823;DHT22;9540;51.550;7.980;2022-12-31T13:38:37;15.60;99.90
18823;DHT22;9540;51.550;7.980;2022-12-31T13:41:10;15.60;99.90
18823;DHT22;9540;51.550;7.980;2022-12-31T13:43:42;15.60;99.90
18823;DHT22;9540;51.550;7.980;2022-12-31T13:46:16;15.60;99.90
18823;DHT22;9540;51.550;7.980;2022-12-31T13:48:49;15.60;99.90
18823;DHT22;9540;51.550;7.980;2022-12-31T13:51:23;15.60;99.90
18823;DHT22;9540;51.550;7.980;2022-12-31T13:53:58;15.70;99.90
18823;DHT22;9540;51.550;7.980;2022-12-31T13:56:30;15.60;99.90
18823;DHT22;9540;51.550;7.980;2022-12-31T13:59:03;15.30;99.90
18823;DHT22;9540;51.550;7.980;2022-12-31T14:01:35;15.10;99.90
18823;DHT22;9540;51.550;7.980;2022-12-31T14:04:07;15.10;99.90
18823;DHT22;9540;51.550;7.980;2022-12-31T14:06:42;15.20;99.90
18823;DHT22;9540;51.550;7.980;2022-12-31T14:09:16;15.30;99.90
18823;DHT22;9540;51.550;7.980;2022-12-31T14:11:58;15.20;99.90
18823;DHT22;9540;51.550;7.980;2022-12-31T14:14:32;15.20;99.90
18823;DHT22;9540;51.550;7.980;2022-12-31T14:17:07;15.40;99.90
18823;DHT22;9540;51.550;7.980;2022-12-31T14:19:46;15.40;99.90
18823;DHT22;9540;51.550;7.980;2022-12-31T14:22:23;15.40;99.90
18823;DHT22;9540;51.550;7.980;2022-12-31T14:24:52;15.50;99.90
18823;DHT22;9540;51.550;7.980;2022-12-31T14:27:23;15.50;99.90
18823;DHT22;9540;51.550;7.980;2022-12-31T14:29:55;15.50;99.90
18823;DHT22;9540;51.550;7.980;2022-12-31T14:35:36;15.40;99.90
18823;DHT22;9540;51.550;7.980;2022-12-31T14:38:13;15.50;99.90
18823;DHT22;9540;51.550;7.980;2022-12-31T14:40:52;15.50;99.90
18823;DHT22;9540;51.550;7.980;2022-12-31T14:43:27;15.60;99.90
18823;DHT22;9540;51.550;7.980;2022-12-31T14:46:03;15.50;99.90
18823;DHT22;9540;51.550;7.980;2022-12-31T14:48:43;15.50;99.90
18823;DHT22;9540;51.550;7.980;2022-12-31T14:51:11;15.60;99.90
18823;DHT22;9540;51.550;7.980;2022-12-31T14:53:50;15.50;99.90
18823;DHT22;9540;51.550;7.980;2022-12-31T14:56:28;15.50;99.90
18823;DHT22;9540;51.550;7.980;2022-12-31T14:58:56;15.40;99.90
18823;DHT22;9540;51.550;7.980;2022-12-31T15:01:24;15.30;99.90
18823;DHT22;9540;51.550;7.980;2022-12-31T15:03:52;15.40;99.90
18823;DHT22;9540;51.550;7.980;2022-12-31T15:06:50;15.40;99.90
18823;DHT22;9540;51.550;7.980;2022-12-31T15:09:42;15.40;99.90
18823;DHT22;9540;51.550;7.980;2022-12-31T15:12:25;15.30;99.90
18823;DHT22;9540;51.550;7.980;2022-12-31T15:21:22;15.10;99.90
18823;DHT22;9540;51.550;7.980;2022-12-31T15:23:53;15.10;99.90
18823;DHT22;9540;51.550;7.980;2022-12-31T15:26:24;14.90;99.90
18823;DHT22;9540;51.550;7.980;2022-12-31T15:28:57;14.90;99.90
18823;DHT22;9540;51.550;7.980;2022-12-31T15:31:25;15.00;99.90
18823;DHT22;9540;51.550;7.980;2022-12-31T15:33:56;14.90;99.90
18823;DHT22;9540;51.550;7.980;2022-12-31T15:36:26;14.90;99.90
18823;DHT22;9540;51.550;7.980;2022-12-31T15:42:26;14.90;99.90
18823;DHT22;9540;51.550;7.980;2022-12-31T15:44:58;14.90;99.90
18823;DHT22;9540;51.550;7.980;2022-12-31T15:47:28;14.90;99.90
18823;DHT22;9540;51.550;7.980;2022-12-31T15:49:57;14.90;99.90
18823;DHT22;9540;51.550;7.980;2022-12-31T15:52:29;14.80;99.90
18823;DHT22;9540;51.550;7.980;2022-12-31T15:54:59;14.80;99.90
18823;DHT22;9540;51.550;7.980;2022-12-31T15:57:33;14.80;99.90
18823;DHT22;9540;51.550;7.980;2022-12-31T16:00:08;14.80;99.90
18823;DHT22;9540;51.550;7.980;2022-12-31T16:02:42;14.90;99.90
18823;DHT22;9540;51.550;7.980;2022-12-31T16:05:17;15.10;99.90
18823;DHT22;9540;51.550;7.980;2022-12-31T16:07:44;15.10;99.90
18823;DHT22;9540;51.550;7.980;2022-12-31T16:10:16;14.80;99.90
18823;DHT22;9540;51.550;7.980;2022-12-31T16:12:46;14.70;99.90
18823;DHT22;9540;51.550;7.980;2022-12-31T16:15:20;14.80;99.90
18823;DHT22;9540;51.550;7.980;2022-12-31T16:17:58;14.80;99.90
18823;DHT22;9540;51.550;7.980;2022-12-31T16:20:26;14.90;99.90
18823;DHT22;9540;51.550;7.980;2022-12-31T16:22:56;15.00;99.90
18823;DHT22;9540;51.550;7.980;2022-12-31T16:25:25;15.10;99.90
18823;DHT22;9540;51.550;7.980;2022-12-31T16:27:54;15.10;99.90
18823;DHT22;9540;51.550;7.980;2022-12-31T16:30:24;15.10;99.90
18823;DHT22;9540;51.550;7.980;2022-12-31T16:32:54;15.10;99.90
18823;DHT22;9540;51.550;7.980;2022-12-31T16:35:24;15.20;99.90
18823;DHT22;9540;51.550;7.980;2022-12-31T16:38:07;15.30;99.90
18823;DHT22;9540;51.550;7.980;2022-12-31T16:40:35;15.20;99.90
18823;DHT22;9540;51.550;7.980;2022-12-31T16:43:21;15.40;99.90
18823;DHT22;9540;51.550;7.980;2022-12-31T16:45:48;15.40;99.90
18823;DHT22;9540;51.550;7.980;2022-12-31T16:48:16;15.40;99.90
18823;DHT22;9540;51.550;7.980;2022-12-31T16:50:44;15.40;99.90
18823;DHT22;9540;51.550;7.980;2022-12-31T16:53:14;15.40;99.90
18823;DHT22;9540;51.550;7.980;2022-12-31T16:55:43;15.30;99.90